Time;durP1;ratioP1;P1;durP2;ratioP2;P2;SDS_P1;SDS_P2;PMS_P1;PMS_P2;Temp;Humidity;BMP_temperature;BMP_pressure;BME280_temperature;BME280_humidity;BME280_pressure;Samples;Min_cycle;Max_cycle;Signal;HPM_P1;HPM_P2
2023/04/09 00:00:15;;;;;;;43.90;25.05;;;9.90;99.90;;;;;;5075893;28;20399;-71
2023/04/09 00:02:41;;;;;;;45.28;24.73;;;9.90;99.90;;;;;;5092431;28;20027;-72
2023/04/09 00:05:07;;;;;;;43.40;23.73;;;9.90;99.90;;;;;;5091890;28;20024;-71
2023/04/09 00:07:33;;;;;;;43.85;24.85;;;9.80;99.90;;;;;;5088679;28;20376;-72
2023/04/09 00:09:58;;;;;;;41.28;23.73;;;9.90;99.90;;;;;;5091169;28;20458;-71
2023/04/09 00:12:24;;;;;;;43.65;23.60;;;9.80;99.90;;;;;;5091472;28;20055;-71
2023/04/09 00:14:49;;;;;;;41.83;24.48;;;9.80;99.90;;;;;;5091088;28;20107;-71
2023/04/09 00:17:15;;;;;;;40.30;24.23;;;9.80;99.90;;;;;;5091287;28;20036;-71
2023/04/09 00:19:40;;;;;;;39.55;23.15;;;9.80;99.90;;;;;;5091210;28;20020;-71
2023/04/09 00:22:06;;;;;;;43.33;24.67;;;9.80;99.90;;;;;;5091028;28;20028;-71
2023/04/09 00:24:31;;;;;;;44.72;25.10;;;9.80;99.90;;;;;;5091213;28;20016;-71
2023/04/09 00:26:57;;;;;;;44.95;24.92;;;9.80;99.90;;;;;;5091104;28;20109;-72
2023/04/09 00:29:22;;;;;;;42.90;24.58;;;9.80;99.90;;;;;;5091278;28;20102;-71
2023/04/09 00:31:48;;;;;;;45.72;25.50;;;9.80;99.90;;;;;;5092974;28;20147;-71
2023/04/09 00:34:14;;;;;;;43.90;24.67;;;9.80;99.90;;;;;;5094418;28;20032;-72
2023/04/09 00:36:39;;;;;;;43.38;24.38;;;9.80;99.90;;;;;;5094889;28;20109;-70
2023/04/09 00:39:05;;;;;;;44.80;25.25;;;9.90;99.90;;;;;;5094898;28;20028;-70
2023/04/09 00:41:30;;;;;;;42.10;23.75;;;9.90;99.90;;;;;;5094681;28;20031;-70
2023/04/09 00:43:56;;;;;;;40.05;24.00;;;9.90;99.90;;;;;;5094861;28;20024;-70
2023/04/09 00:46:22;;;;;;;46.67;24.83;;;9.90;99.90;;;;;;5094509;28;20016;-71
2023/04/09 00:48:47;;;;;;;40.72;23.42;;;9.90;99.90;;;;;;5095107;28;20020;-71
2023/04/09 00:51:13;;;;;;;41.30;24.58;;;9.90;99.90;;;;;;5095869;28;20035;-70
2023/04/09 00:53:39;;;;;;;45.17;24.10;;;9.90;99.90;;;;;;5095823;28;20016;-70
2023/04/09 00:56:05;;;;;;;47.20;27.00;;;9.90;99.90;;;;;;5095643;28;20039;-70
2023/04/09 00:58:31;;;;;;;42.78;25.20;;;9.90;99.90;;;;;;5094098;28;20016;-70
2023/04/09 01:00:56;;;;;;;45.42;24.48;;;9.90;99.90;;;;;;5095803;28;20024;-70
2023/04/09 01:03:22;;;;;;;43.88;23.90;;;9.90;99.90;;;;;;5095457;28;20067;-70
2023/04/09 01:06:10;;;;;;;44.17;24.65;;;9.90;99.90;;;;;;5095420;28;20036;-70
2023/04/09 01:08:44;;;;;;;41.42;24.20;;;9.90;99.90;;;;;;5081278;28;20353;-70
2023/04/09 01:11:36;;;;;;;46.20;24.98;;;9.90;99.90;;;;;;5095478;28;20375;-70
2023/04/09 01:14:34;;;;;;;44.75;24.17;;;9.90;99.90;;;;;;5095526;28;20036;-72
2023/04/09 01:17:05;;;;;;;42.42;25.02;;;9.80;99.90;;;;;;5095762;28;20093;-71
2023/04/09 01:19:45;;;;;;;46.80;24.98;;;9.80;99.90;;;;;;5095436;28;20088;-70
2023/04/09 01:22:29;;;;;;;46.53;25.30;;;9.80;99.90;;;;;;5095236;28;20028;-70
2023/04/09 01:25:18;;;;;;;44.40;24.65;;;9.80;99.90;;;;;;5095252;28;20368;-70
2023/04/09 01:28:03;;;;;;;47.20;27.17;;;9.80;99.90;;;;;;5094647;28;20533;-70
2023/04/09 01:30:30;;;;;;;42.47;24.58;;;9.80;99.90;;;;;;5079563;28;20077;-70
2023/04/09 01:32:56;;;;;;;44.65;24.60;;;9.90;99.90;;;;;;5095247;28;20027;-70
2023/04/09 01:35:24;;;;;;;43.50;24.73;;;9.90;99.90;;;;;;5094051;28;20383;-70
2023/04/09 01:37:51;;;;;;;43.17;23.90;;;9.90;99.90;;;;;;5095116;28;20067;-71
2023/04/09 01:40:17;;;;;;;44.53;23.13;;;10.00;99.90;;;;;;5094828;28;20081;-71
2023/04/09 01:42:44;;;;;;;43.55;25.02;;;10.00;99.90;;;;;;5094696;28;20020;-72
2023/04/09 01:45:12;;;;;;;44.50;24.00;;;10.10;99.90;;;;;;5094853;28;20032;-72
2023/04/09 01:47:38;;;;;;;43.63;23.83;;;10.10;99.90;;;;;;5094960;28;20039;-71
2023/04/09 01:50:04;;;;;;;41.28;24.30;;;10.10;99.90;;;;;;5093444;28;20024;-72
2023/04/09 01:52:30;;;;;;;43.75;24.58;;;10.20;99.90;;;;;;5094595;28;20479;-71
2023/04/09 01:54:56;;;;;;;45.40;24.63;;;10.20;99.90;;;;;;5094616;28;20031;-72
2023/04/09 01:57:22;;;;;;;41.38;23.98;;;10.20;99.90;;;;;;5094456;28;20078;-71
2023/04/09 01:59:47;;;;;;;45.55;24.00;;;10.20;99.90;;;;;;5078423;28;20060;-71
2023/04/09 02:02:19;;;;;;;44.38;25.08;;;10.30;99.90;;;;;;5093641;28;20020;-72
2023/04/09 02:04:48;;;;;;;42.70;23.02;;;10.30;99.90;;;;;;5094342;28;20024;-71
2023/04/09 02:07:38;;;;;;;43.20;24.08;;;10.30;99.90;;;;;;5094606;28;20036;-72
2023/04/09 02:10:08;;;;;;;42.33;23.75;;;10.30;99.90;;;;;;5094209;28;20039;-72
2023/04/09 02:12:36;;;;;;;44.90;24.25;;;10.40;99.90;;;;;;5094432;28;20479;-72
2023/04/09 02:15:02;;;;;;;41.95;22.58;;;10.40;99.90;;;;;;5094470;28;20535;-71
2023/04/09 02:17:28;;;;;;;42.85;24.85;;;10.40;99.90;;;;;;5093950;28;20123;-71
2023/04/09 02:19:54;;;;;;;42.85;23.85;;;10.40;99.90;;;;;;5094024;28;20067;-71
2023/04/09 02:22:19;;;;;;;42.80;25.10;;;10.40;99.90;;;;;;5077708;28;20042;-71
2023/04/09 02:24:45;;;;;;;39.38;22.85;;;10.50;99.90;;;;;;5094111;28;20028;-72
2023/04/09 02:27:11;;;;;;;45.08;23.45;;;10.50;99.90;;;;;;5094106;28;20051;-71
2023/04/09 02:29:38;;;;;;;41.72;23.08;;;10.50;99.90;;;;;;5094206;28;20471;-71
2023/04/09 02:32:04;;;;;;;43.03;23.55;;;10.50;99.90;;;;;;5094104;28;20533;-71
2023/04/09 02:34:30;;;;;;;44.10;24.60;;;10.50;99.90;;;;;;5093753;28;20024;-71
2023/04/09 02:36:55;;;;;;;44.72;24.35;;;10.50;99.90;;;;;;5093565;28;20387;-71
2023/04/09 02:39:21;;;;;;;43.15;23.80;;;10.60;99.90;;;;;;5093601;28;20341;-71
2023/04/09 02:41:46;;;;;;;43.22;23.73;;;10.60;99.90;;;;;;5093862;28;20084;-71
2023/04/09 02:44:12;;;;;;;41.55;22.80;;;10.50;99.90;;;;;;5093667;28;20024;-71
2023/04/09 02:46:38;;;;;;;48.63;24.73;;;10.50;99.90;;;;;;5093794;28;20020;-72
2023/04/09 02:49:03;;;;;;;43.05;23.73;;;10.60;99.90;;;;;;5093588;28;20024;-72
2023/04/09 02:51:29;;;;;;;41.25;23.48;;;10.50;99.90;;;;;;5093649;28;20035;-72
2023/04/09 02:53:55;;;;;;;44.80;23.80;;;10.50;99.90;;;;;;5092927;28;20020;-72
2023/04/09 02:56:20;;;;;;;42.47;23.10;;;10.50;99.90;;;;;;5093269;28;20028;-71
2023/04/09 02:58:48;;;;;;;45.60;23.40;;;10.50;99.90;;;;;;5086376;28;20021;-71
2023/04/09 03:01:13;;;;;;;45.35;23.83;;;10.50;99.90;;;;;;5084298;28;20028;-71
2023/04/09 03:03:40;;;;;;;39.90;23.65;;;10.50;99.90;;;;;;5093344;28;20091;-71
2023/04/09 03:06:06;;;;;;;42.70;23.70;;;10.50;99.90;;;;;;5092956;28;20027;-71
2023/04/09 03:08:32;;;;;;;43.60;24.13;;;10.50;99.90;;;;;;5093449;28;20027;-71
2023/04/09 03:10:57;;;;;;;44.80;23.80;;;10.50;99.90;;;;;;5093293;28;20035;-71
2023/04/09 03:13:23;;;;;;;45.75;23.98;;;10.50;99.90;;;;;;5093318;28;20024;-70
2023/04/09 03:15:52;;;;;;;42.97;23.30;;;10.50;99.90;;;;;;5093231;28;20031;-71
2023/04/09 03:18:17;;;;;;;42.05;23.17;;;10.50;99.90;;;;;;5092933;28;20078;-71
2023/04/09 03:20:43;;;;;;;42.88;21.60;;;10.50;99.90;;;;;;5093065;28;20452;-71
2023/04/09 03:23:10;;;;;;;40.35;21.13;;;10.50;99.90;;;;;;5093342;28;20028;-71
2023/04/09 03:25:35;;;;;;;41.30;22.08;;;10.50;99.90;;;;;;5093171;28;20028;-71
2023/04/09 03:28:02;;;;;;;41.28;22.13;;;10.50;99.90;;;;;;5092639;28;20052;-71
2023/04/09 03:30:27;;;;;;;39.78;20.15;;;10.50;99.90;;;;;;5093230;28;20536;-71
2023/04/09 03:32:53;;;;;;;35.25;18.90;;;10.40;99.90;;;;;;5092776;28;20064;-71
2023/04/09 03:35:19;;;;;;;37.35;20.75;;;10.40;99.90;;;;;;5092887;28;20020;-71
2023/04/09 03:37:45;;;;;;;41.90;21.48;;;10.30;99.90;;;;;;5093090;28;20388;-71
2023/04/09 03:40:11;;;;;;;43.10;20.83;;;10.30;99.90;;;;;;5076291;28;20028;-71
2023/04/09 03:42:36;;;;;;;40.58;20.20;;;10.20;99.90;;;;;;5092956;28;20028;-71
2023/04/09 03:45:03;;;;;;;37.63;18.88;;;10.20;99.90;;;;;;5093115;28;20028;-71
2023/04/09 03:47:29;;;;;;;39.92;19.13;;;10.20;99.90;;;;;;5092856;28;20021;-71
2023/04/09 03:49:55;;;;;;;48.10;20.83;;;10.20;99.90;;;;;;5092011;28;20043;-71
2023/04/09 03:52:20;;;;;;;41.30;20.10;;;10.10;99.90;;;;;;5093009;28;20035;-71
2023/04/09 03:54:46;;;;;;;42.33;20.75;;;10.10;99.90;;;;;;5093006;28;20020;-70
2023/04/09 03:57:11;;;;;;;45.15;21.95;;;10.10;99.90;;;;;;5092760;28;20123;-70
2023/04/09 03:59:37;;;;;;;45.63;21.25;;;10.10;99.90;;;;;;5078447;28;20036;-70
2023/04/09 04:02:03;;;;;;;46.45;21.90;;;10.10;99.90;;;;;;5090376;28;20024;-70
2023/04/09 04:04:28;;;;;;;44.50;22.55;;;10.10;99.90;;;;;;5092767;28;20474;-71
2023/04/09 04:06:54;;;;;;;43.10;20.50;;;10.20;99.90;;;;;;5096677;28;20447;-70
2023/04/09 04:09:19;;;;;;;44.67;21.70;;;10.20;99.90;;;;;;5096970;28;20077;-71
2023/04/09 04:11:45;;;;;;;48.17;22.25;;;10.20;99.90;;;;;;5096632;28;20051;-71
2023/04/09 04:14:11;;;;;;;45.78;22.52;;;10.20;99.90;;;;;;5096665;28;20028;-71
2023/04/09 04:16:38;;;;;;;47.50;22.67;;;10.20;99.90;;;;;;5096555;28;20530;-70
2023/04/09 04:19:04;;;;;;;48.55;23.70;;;10.30;99.90;;;;;;5096607;28;20126;-70
2023/04/09 04:21:30;;;;;;;45.15;21.95;;;10.30;99.90;;;;;;5096742;28;20462;-71
2023/04/09 04:23:56;;;;;;;44.20;21.98;;;10.30;99.90;;;;;;5096354;28;20376;-71
2023/04/09 04:26:21;;;;;;;45.13;22.42;;;10.30;99.90;;;;;;5096539;28;20040;-71
2023/04/09 04:28:47;;;;;;;45.10;21.75;;;10.30;99.90;;;;;;5096512;28;20081;-71
2023/04/09 04:31:12;;;;;;;46.35;20.20;;;10.30;99.90;;;;;;5096419;28;20028;-71
2023/04/09 04:33:39;;;;;;;43.05;22.23;;;10.30;99.90;;;;;;5096005;28;20024;-71
2023/04/09 04:36:10;;;;;;;47.22;22.17;;;10.30;99.90;;;;;;5096265;28;20036;-71
2023/04/09 04:38:37;;;;;;;47.92;23.13;;;10.30;99.90;;;;;;5096332;28;20119;-71
2023/04/09 04:41:03;;;;;;;48.30;23.42;;;10.30;99.90;;;;;;5096468;28;20024;-71
2023/04/09 04:43:29;;;;;;;45.05;21.15;;;10.30;99.90;;;;;;5096032;28;20526;-71
2023/04/09 04:45:54;;;;;;;42.70;21.02;;;10.40;99.90;;;;;;5096280;28;20039;-71
2023/04/09 04:48:20;;;;;;;45.47;23.05;;;10.40;99.90;;;;;;5095971;28;20020;-71
2023/04/09 04:50:46;;;;;;;47.28;24.02;;;10.40;99.90;;;;;;5096236;28;20077;-71
2023/04/09 04:53:11;;;;;;;49.90;23.83;;;10.40;99.90;;;;;;5096109;28;20107;-72
2023/04/09 04:55:40;;;;;;;43.75;22.83;;;10.40;99.90;;;;;;5095805;28;20062;-72
2023/04/09 04:58:06;;;;;;;47.83;21.65;;;10.50;99.90;;;;;;5093894;28;20027;-71
2023/04/09 05:00:31;;;;;;;46.83;23.35;;;10.50;99.90;;;;;;5080766;28;20028;-71
2023/04/09 05:02:57;;;;;;;43.47;22.40;;;10.40;99.90;;;;;;5095165;28;20020;-71
2023/04/09 05:05:23;;;;;;;44.55;20.92;;;10.50;99.90;;;;;;5095570;28;20020;-71
2023/04/09 05:07:48;;;;;;;50.58;23.42;;;10.50;99.90;;;;;;5095814;28;20100;-71
2023/04/09 05:10:14;;;;;;;47.33;22.48;;;10.50;99.90;;;;;;5095612;28;20139;-70
2023/04/09 05:12:40;;;;;;;43.47;20.73;;;10.50;99.90;;;;;;5095617;28;20039;-70
2023/04/09 05:15:06;;;;;;;47.03;23.00;;;10.50;99.90;;;;;;5095525;28;20085;-71
2023/04/09 05:17:32;;;;;;;48.08;23.23;;;10.50;99.90;;;;;;5094354;28;20506;-71
2023/04/09 05:19:57;;;;;;;46.65;20.55;;;10.50;99.90;;;;;;5095565;28;20031;-71
2023/04/09 05:22:23;;;;;;;43.55;21.30;;;10.50;99.90;;;;;;5095627;28;20022;-71
2023/04/09 05:24:48;;;;;;;45.00;21.98;;;10.50;99.90;;;;;;5095442;28;20031;-71
2023/04/09 05:27:14;;;;;;;48.60;23.15;;;10.50;99.90;;;;;;5094875;28;20047;-71
2023/04/09 05:29:40;;;;;;;44.17;22.95;;;10.50;99.90;;;;;;5095319;28;20020;-71
2023/04/09 05:32:07;;;;;;;46.63;21.75;;;10.50;99.90;;;;;;5094845;28;20024;-71
2023/04/09 05:34:33;;;;;;;46.13;22.65;;;10.60;99.90;;;;;;5095206;28;20375;-71
2023/04/09 05:36:58;;;;;;;48.70;23.15;;;10.60;99.90;;;;;;5094817;28;20426;-71
2023/04/09 05:39:24;;;;;;;47.00;23.10;;;10.60;99.90;;;;;;5095372;28;20448;-72
2023/04/09 05:41:51;;;;;;;44.10;22.05;;;10.70;99.90;;;;;;5093726;28;20036;-71
2023/04/09 05:44:17;;;;;;;52.28;23.15;;;10.70;99.90;;;;;;5094859;28;20024;-71
2023/04/09 05:46:42;;;;;;;47.38;22.77;;;10.70;99.90;;;;;;5094668;28;20043;-70
2023/04/09 05:49:08;;;;;;;43.65;22.45;;;10.70;99.90;;;;;;5094876;28;20024;-70
2023/04/09 05:51:33;;;;;;;43.33;21.85;;;10.80;99.90;;;;;;5094725;28;20024;-70
2023/04/09 05:53:59;;;;;;;42.95;22.35;;;10.80;99.90;;;;;;5094414;28;20036;-70
2023/04/09 05:56:26;;;;;;;43.97;21.55;;;10.80;99.90;;;;;;5094619;28;20059;-70
2023/04/09 05:58:52;;;;;;;44.05;22.45;;;10.80;99.90;;;;;;5086322;28;20423;-70
2023/04/09 06:01:18;;;;;;;44.80;23.27;;;10.90;99.90;;;;;;5086010;28;20102;-70
2023/04/09 06:03:44;;;;;;;44.95;22.42;;;10.90;99.90;;;;;;5094387;28;20024;-70
2023/04/09 06:06:09;;;;;;;41.90;21.85;;;10.90;99.90;;;;;;5094038;28;20040;-70
2023/04/09 06:08:35;;;;;;;42.47;21.48;;;10.90;99.90;;;;;;5094354;28;20016;-70
2023/04/09 06:11:02;;;;;;;43.67;22.67;;;11.00;99.90;;;;;;5093742;28;20028;-70
2023/04/09 06:13:27;;;;;;;43.55;22.80;;;11.00;99.90;;;;;;5093895;28;20126;-70
2023/04/09 06:15:53;;;;;;;42.47;22.00;;;11.00;99.90;;;;;;5093552;28;20519;-71
2023/04/09 06:18:19;;;;;;;42.58;21.88;;;11.00;99.90;;;;;;5093791;28;20012;-71
2023/04/09 06:20:44;;;;;;;45.03;22.02;;;11.10;99.90;;;;;;5093100;28;20016;-71
2023/04/09 06:23:10;;;;;;;41.13;21.58;;;11.10;99.90;;;;;;5092523;28;20115;-71
2023/04/09 06:25:35;;;;;;;39.72;20.83;;;11.10;99.90;;;;;;5094156;28;20052;-71
2023/04/09 06:28:01;;;;;;;42.33;21.90;;;11.10;99.90;;;;;;5094223;28;20128;-71
2023/04/09 06:30:28;;;;;;;41.40;20.95;;;11.10;99.90;;;;;;5093127;28;20529;-71
2023/04/09 06:32:53;;;;;;;47.10;21.75;;;11.10;99.90;;;;;;5093612;28;20545;-71
2023/04/09 06:35:19;;;;;;;37.67;18.85;;;11.20;99.90;;;;;;5094364;28;20055;-71
2023/04/09 06:37:45;;;;;;;44.78;20.55;;;11.20;99.90;;;;;;5094149;28;20111;-71
2023/04/09 06:40:11;;;;;;;42.58;21.08;;;11.10;99.90;;;;;;5094384;28;20032;-71
2023/04/09 06:42:36;;;;;;;42.85;21.10;;;11.20;99.90;;;;;;5094025;28;20024;-71
2023/04/09 06:45:07;;;;;;;40.92;21.25;;;11.20;99.90;;;;;;5093527;28;20540;-71
2023/04/09 06:47:35;;;;;;;44.08;21.75;;;11.20;99.90;;;;;;5093007;28;20539;-71
2023/04/09 06:50:01;;;;;;;42.97;23.10;;;11.20;99.90;;;;;;5094094;28;20023;-71
2023/04/09 06:52:26;;;;;;;42.88;21.17;;;11.30;99.90;;;;;;5093814;28;20096;-71
2023/04/09 06:54:52;;;;;;;46.90;22.85;;;11.30;99.90;;;;;;5093923;28;20024;-71
2023/04/09 06:57:17;;;;;;;41.30;22.40;;;11.20;99.90;;;;;;5093521;28;20472;-71
2023/04/09 06:59:43;;;;;;;46.97;22.00;;;11.20;99.90;;;;;;5093654;28;20070;-71
2023/04/09 07:02:08;;;;;;;45.47;23.38;;;11.20;99.90;;;;;;5093863;28;20061;-71
2023/04/09 07:04:34;;;;;;;42.20;21.77;;;11.30;99.90;;;;;;5094019;28;20024;-71
2023/04/09 07:07:00;;;;;;;42.00;21.33;;;11.30;99.90;;;;;;5093545;28;20028;-71
2023/04/09 07:09:25;;;;;;;41.03;20.05;;;11.30;99.90;;;;;;5093510;28;20105;-71
2023/04/09 07:11:51;;;;;;;40.05;21.33;;;11.40;99.90;;;;;;5093364;28;20065;-71
2023/04/09 07:14:17;;;;;;;41.40;20.08;;;11.40;99.90;;;;;;5093532;28;20059;-71
2023/04/09 07:16:45;;;;;;;43.95;21.00;;;11.40;99.90;;;;;;5093433;28;20091;-71
2023/04/09 07:19:10;;;;;;;40.10;22.05;;;11.50;99.90;;;;;;5093861;28;20024;-71
2023/04/09 07:21:36;;;;;;;39.83;21.10;;;11.50;99.90;;;;;;5086772;28;20081;-72
2023/04/09 07:24:02;;;;;;;50.08;22.88;;;11.50;99.90;;;;;;5086803;28;20038;-72
2023/04/09 07:26:28;;;;;;;41.33;21.92;;;11.50;99.90;;;;;;5089197;28;20053;-71
2023/04/09 07:28:54;;;;;;;41.60;22.27;;;11.50;99.90;;;;;;5090437;28;20031;-71
2023/04/09 07:31:20;;;;;;;44.03;21.90;;;11.50;99.90;;;;;;5093442;28;20016;-71
2023/04/09 07:33:46;;;;;;;42.28;21.23;;;11.50;99.90;;;;;;5093691;28;20027;-72
2023/04/09 07:36:11;;;;;;;40.17;20.77;;;11.50;99.90;;;;;;5092982;28;20396;-71
2023/04/09 07:38:37;;;;;;;43.10;20.00;;;11.50;99.90;;;;;;5092869;28;20023;-72
2023/04/09 07:41:02;;;;;;;37.80;20.48;;;11.50;99.90;;;;;;5080330;28;20375;-72
2023/04/09 07:43:28;;;;;;;40.55;20.38;;;11.50;99.90;;;;;;5099275;28;20032;-72
2023/04/09 07:45:53;;;;;;;40.53;22.20;;;11.40;99.90;;;;;;5098492;28;20026;-72
2023/04/09 07:48:19;;;;;;;41.65;22.38;;;11.40;99.90;;;;;;5099471;28;20016;-71
2023/04/09 07:50:44;;;;;;;44.20;22.25;;;11.40;99.90;;;;;;5099608;28;20372;-72
2023/04/09 07:53:11;;;;;;;43.58;20.25;;;11.40;99.90;;;;;;5099383;28;20016;-72
2023/04/09 07:55:37;;;;;;;43.10;22.00;;;11.40;99.90;;;;;;5099547;28;20028;-72
2023/04/09 07:58:04;;;;;;;41.08;21.90;;;11.50;99.90;;;;;;5099623;28;20536;-71
2023/04/09 08:00:29;;;;;;;43.20;22.15;;;11.50;99.90;;;;;;5099574;28;20407;-72
2023/04/09 08:02:56;;;;;;;42.13;23.20;;;11.60;99.90;;;;;;5099581;28;20024;-71
2023/04/09 08:05:22;;;;;;;39.90;21.58;;;11.60;99.90;;;;;;5099867;28;20121;-71
2023/04/09 08:07:49;;;;;;;41.30;21.95;;;11.60;99.90;;;;;;5099023;28;20023;-71
2023/04/09 08:10:15;;;;;;;41.45;22.45;;;11.60;99.90;;;;;;5098521;28;20097;-72
2023/04/09 08:12:41;;;;;;;43.13;23.10;;;11.60;99.90;;;;;;5099487;28;20047;-72
2023/04/09 08:15:07;;;;;;;40.00;20.55;;;11.60;99.90;;;;;;5096716;28;20024;-72
2023/04/09 08:17:35;;;;;;;43.30;22.40;;;11.70;99.90;;;;;;5085322;28;20126;-72
2023/04/09 08:20:01;;;;;;;42.80;22.63;;;11.70;99.90;;;;;;5099340;28;20537;-71
2023/04/09 08:22:27;;;;;;;42.92;22.38;;;11.80;99.90;;;;;;5099402;28;20034;-72
2023/04/09 08:24:53;;;;;;;40.65;22.98;;;11.80;99.90;;;;;;5098034;28;20028;-72
2023/04/09 08:27:20;;;;;;;41.47;21.73;;;11.80;99.90;;;;;;5090489;28;20059;-71
2023/04/09 08:29:45;;;;;;;43.70;22.42;;;11.80;99.90;;;;;;5099454;28;20027;-72
2023/04/09 08:32:11;;;;;;;41.08;20.75;;;11.80;99.90;;;;;;5099140;28;20028;-72
2023/04/09 08:34:37;;;;;;;44.60;22.55;;;11.80;99.90;;;;;;5099442;28;20032;-72
2023/04/09 08:37:02;;;;;;;39.08;20.88;;;11.80;99.90;;;;;;5098947;28;20082;-72
2023/04/09 08:39:28;;;;;;;42.38;22.27;;;11.90;99.90;;;;;;5099080;28;20131;-71
2023/04/09 08:42:00;;;;;;;45.47;24.13;;;11.90;99.90;;;;;;5099394;28;20024;-71
2023/04/09 08:44:26;;;;;;;44.63;22.17;;;12.00;99.90;;;;;;5099470;28;20111;-71
2023/04/09 08:46:53;;;;;;;43.85;22.15;;;12.10;99.90;;;;;;5098768;28;20028;-72
2023/04/09 08:49:18;;;;;;;42.72;21.25;;;12.10;99.90;;;;;;5099128;28;20024;-71
2023/04/09 08:51:48;;;;;;;41.45;21.27;;;12.20;99.90;;;;;;5097043;28;20061;-71
2023/04/09 08:54:18;;;;;;;43.70;23.23;;;12.20;99.90;;;;;;5095395;28;20040;-72
2023/04/09 08:56:45;;;;;;;43.38;22.50;;;12.20;99.90;;;;;;5095831;28;20044;-72
2023/04/09 08:59:16;;;;;;;45.00;22.15;;;12.20;99.90;;;;;;5095698;28;20020;-72
2023/04/09 09:01:41;;;;;;;42.85;21.65;;;12.20;99.90;;;;;;5095753;28;20117;-72
2023/04/09 09:04:08;;;;;;;46.95;22.58;;;12.30;99.90;;;;;;5095301;28;20094;-72
2023/04/09 09:06:37;;;;;;;51.40;27.05;;;12.30;99.90;;;;;;5095015;28;20028;-72
2023/04/09 09:09:04;;;;;;;47.08;24.45;;;12.30;99.90;;;;;;5095546;28;20035;-71
2023/04/09 09:11:29;;;;;;;49.75;23.15;;;12.30;99.90;;;;;;5095820;28;20024;-72
2023/04/09 09:14:03;;;;;;;45.92;22.88;;;12.40;99.90;;;;;;5095657;28;20020;-72
2023/04/09 09:16:31;;;;;;;49.97;24.38;;;12.40;99.90;;;;;;5081083;28;20047;-71
2023/04/09 09:18:57;;;;;;;42.88;22.55;;;12.40;99.90;;;;;;5093252;28;20107;-72
2023/04/09 09:21:25;;;;;;;48.95;25.20;;;12.30;99.90;;;;;;5095524;28;20115;-71
2023/04/09 09:23:50;;;;;;;47.50;24.00;;;12.40;99.90;;;;;;5095429;28;20073;-72
2023/04/09 09:26:42;;;;;;;45.17;23.05;;;12.50;99.90;;;;;;5095197;28;20044;-71
2023/04/09 09:29:08;;;;;;;44.75;21.27;;;12.50;99.90;;;;;;5091311;28;20047;-71
2023/04/09 09:31:46;;;;;;;43.65;22.95;;;12.50;99.90;;;;;;5094684;28;20385;-71
2023/04/09 09:34:11;;;;;;;44.47;23.17;;;12.50;99.90;;;;;;5095094;28;20028;-71
2023/04/09 09:36:37;;;;;;;41.53;22.40;;;12.50;99.90;;;;;;5094844;28;20036;-72
2023/04/09 09:39:08;;;;;;;41.40;21.63;;;12.60;99.90;;;;;;5094901;28;20123;-71
2023/04/09 09:41:34;;;;;;;41.88;21.52;;;12.60;99.90;;;;;;5095143;28;20025;-70
2023/04/09 09:44:00;;;;;;;44.13;22.85;;;12.70;99.90;;;;;;5094149;28;20090;-70
2023/04/09 09:46:27;;;;;;;43.83;22.48;;;12.70;99.90;;;;;;5093785;28;20111;-71
2023/04/09 09:48:52;;;;;;;42.85;22.73;;;12.70;99.90;;;;;;5093584;28;20048;-71
2023/04/09 09:51:21;;;;;;;41.95;22.95;;;12.70;99.90;;;;;;5093094;28;20443;-70
2023/04/09 09:53:50;;;;;;;44.47;24.40;;;12.70;99.90;;;;;;5094444;28;20024;-70
2023/04/09 09:56:20;;;;;;;45.17;23.45;;;12.80;99.90;;;;;;5094389;28;20545;-71
2023/04/09 09:58:55;;;;;;;45.53;25.15;;;12.80;99.90;;;;;;5094392;28;20058;-71
2023/04/09 10:01:23;;;;;;;46.85;23.92;;;12.80;99.90;;;;;;5078875;28;20052;-70
2023/04/09 10:03:50;;;;;;;45.97;24.23;;;12.80;99.90;;;;;;5093968;28;20034;-70
2023/04/09 10:06:16;;;;;;;44.28;24.25;;;12.90;99.90;;;;;;5093242;28;20020;-71
2023/04/09 10:08:42;;;;;;;46.22;25.38;;;12.90;99.90;;;;;;5094265;28;20472;-71
2023/04/09 10:11:08;;;;;;;44.63;24.15;;;13.00;99.90;;;;;;5094413;28;20043;-71
2023/04/09 10:13:39;;;;;;;46.00;25.15;;;13.10;99.90;;;;;;5094413;28;20031;-71
2023/04/09 10:16:06;;;;;;;43.55;24.13;;;13.00;99.90;;;;;;5093737;28;20040;-72
2023/04/09 10:18:32;;;;;;;49.20;25.08;;;13.00;99.90;;;;;;5094264;28;20031;-71
2023/04/09 10:21:09;;;;;;;44.40;24.73;;;13.10;99.90;;;;;;5094568;28;20074;-70
2023/04/09 10:23:43;;;;;;;49.88;25.15;;;13.10;99.90;;;;;;5093761;28;20024;-71
2023/04/09 10:26:09;;;;;;;45.45;22.05;;;13.10;99.90;;;;;;5093999;28;20051;-71
2023/04/09 10:28:37;;;;;;;43.38;23.40;;;13.30;99.90;;;;;;5093739;28;20421;-71
2023/04/09 10:31:07;;;;;;;43.45;23.58;;;13.40;99.90;;;;;;5093901;28;20024;-71
2023/04/09 10:33:35;;;;;;;42.88;22.70;;;13.50;99.90;;;;;;5093818;28;20150;-71
2023/04/09 10:36:10;;;;;;;43.20;23.02;;;13.80;99.90;;;;;;5093639;28;20031;-71
2023/04/09 10:38:44;;;;;;;42.47;23.58;;;14.00;99.90;;;;;;5094178;28;20039;-71
2023/04/09 10:41:26;;;;;;;41.95;24.20;;;14.40;99.90;;;;;;5094330;28;20150;-71
2023/04/09 10:43:52;;;;;;;42.85;24.33;;;14.80;99.90;;;;;;5093989;28;20095;-71
2023/04/09 10:46:36;;;;;;;47.75;26.08;;;15.00;99.90;;;;;;5093599;28;20270;-71
2023/04/09 10:49:25;;;;;;;46.97;25.73;;;15.30;99.90;;;;;;5093625;28;20023;-71
2023/04/09 10:52:02;;;;;;;44.33;25.08;;;15.50;99.90;;;;;;5093477;28;20028;-71
2023/04/09 10:54:33;;;;;;;44.92;25.02;;;15.70;99.90;;;;;;5093612;28;20028;-71
2023/04/09 10:57:20;;;;;;;42.13;24.48;;;15.80;99.90;;;;;;5092994;28;20075;-71
2023/04/09 10:59:51;;;;;;;44.97;25.63;;;16.00;99.90;;;;;;5093393;28;20030;-71
2023/04/09 11:02:38;;;;;;;45.53;25.95;;;16.10;99.90;;;;;;5093253;28;20523;-71
2023/04/09 11:05:37;;;;;;;44.78;24.33;;;16.20;99.90;;;;;;5093609;28;20024;-71
2023/04/09 11:08:05;;;;;;;41.47;24.55;;;16.40;99.90;;;;;;5093535;28;20052;-71
2023/04/09 11:10:32;;;;;;;41.78;25.20;;;16.60;99.90;;;;;;5093498;28;20020;-72
2023/04/09 11:12:58;;;;;;;40.85;23.73;;;16.90;99.90;;;;;;5093099;28;20031;-71
2023/04/09 11:15:23;;;;;;;42.72;24.70;;;17.40;99.90;;;;;;5091880;28;20020;-72
2023/04/09 11:17:49;;;;;;;41.15;24.98;;;17.70;99.90;;;;;;5092563;28;20032;-71
2023/04/09 11:20:18;;;;;;;40.33;24.33;;;18.00;99.90;;;;;;5093134;28;20020;-72
2023/04/09 11:22:44;;;;;;;43.05;25.13;;;18.30;99.90;;;;;;5093169;28;20028;-71
2023/04/09 11:25:09;;;;;;;40.83;24.80;;;18.50;99.90;;;;;;5093030;28;20460;-71
2023/04/09 11:27:38;;;;;;;38.85;24.23;;;18.80;99.70;;;;;;5092820;28;20055;-72
2023/04/09 11:30:05;;;;;;;40.58;25.13;;;19.30;99.10;;;;;;5093015;28;20476;-71
2023/04/09 11:32:30;;;;;;;39.58;24.45;;;19.50;98.80;;;;;;5092660;28;20020;-71
2023/04/09 11:34:56;;;;;;;40.03;24.65;;;19.80;98.00;;;;;;5092965;28;20024;-72
2023/04/09 11:37:22;;;;;;;37.75;23.77;;;19.90;97.90;;;;;;5093158;28;20100;-71
2023/04/09 11:39:52;;;;;;;41.67;25.65;;;20.20;97.50;;;;;;5093018;28;20111;-72
2023/04/09 11:42:18;;;;;;;36.97;24.27;;;20.50;96.90;;;;;;5093069;28;20036;-72
2023/04/09 11:44:45;;;;;;;39.33;25.27;;;20.80;96.60;;;;;;5092870;28;20157;-71
2023/04/09 11:47:12;;;;;;;36.70;22.92;;;21.10;96.10;;;;;;5090250;28;20024;-71
2023/04/09 11:49:38;;;;;;;36.65;23.92;;;21.20;95.40;;;;;;5087408;28;20024;-71
2023/04/09 11:52:04;;;;;;;38.45;23.90;;;21.30;95.70;;;;;;5091297;28;20042;-70
2023/04/09 11:54:33;;;;;;;36.90;24.42;;;21.50;95.30;;;;;;5092357;28;20031;-71
2023/04/09 11:57:00;;;;;;;38.47;24.90;;;22.20;94.90;;;;;;5092296;28;20483;-71
2023/04/09 11:59:26;;;;;;;37.40;24.63;;;23.10;93.60;;;;;;5092716;28;20700;-71
2023/04/09 12:01:52;;;;;;;33.45;22.63;;;23.80;92.80;;;;;;5092913;28;20031;-71
2023/04/09 12:04:20;;;;;;;41.55;27.63;;;24.60;91.50;;;;;;5092973;28;20081;-71
2023/04/09 12:06:47;;;;;;;33.85;24.05;;;25.10;90.60;;;;;;5092819;28;20024;-71
2023/04/09 12:09:13;;;;;;;33.58;22.63;;;25.40;90.30;;;;;;5092585;28;20490;-71
2023/04/09 12:11:42;;;;;;;34.75;25.40;;;25.70;88.30;;;;;;5092463;28;20024;-71
2023/04/09 12:14:12;;;;;;;30.77;22.27;;;26.30;88.10;;;;;;5092515;28;20073;-72
2023/04/09 12:16:40;;;;;;;31.00;22.52;;;26.70;86.10;;;;;;5077074;28;20393;-72
2023/04/09 12:19:06;;;;;;;33.58;23.45;;;26.80;84.70;;;;;;5091444;28;20078;-70
2023/04/09 12:21:54;;;;;;;30.70;21.38;;;27.10;85.50;;;;;;5092664;28;20012;-71
2023/04/09 12:24:22;;;;;;;30.30;22.25;;;27.70;82.10;;;;;;5092540;28;20035;-72
2023/04/09 12:26:49;;;;;;;30.65;21.75;;;27.70;80.80;;;;;;5092307;28;20044;-71
2023/04/09 12:29:16;;;;;;;30.60;20.33;;;27.30;81.60;;;;;;5079740;28;20031;-72